createdAt,value
2022-11-04T00:01:29.872Z,14.19
2022-11-04T00:03:57.573Z,13.61
2022-11-04T00:06:25.710Z,13.71
2022-11-04T00:08:57.016Z,13.55
2022-11-04T00:11:42.988Z,13.72
2022-11-04T00:14:11.336Z,13.98
2022-11-04T00:17:08.037Z,13.68
2022-11-04T00:19:49.630Z,13.96
2022-11-04T00:22:35.152Z,13.81
2022-11-04T00:25:22.272Z,13.74
2022-11-04T00:28:07.659Z,13.87
2022-11-04T00:30:35.754Z,14.06
2022-11-04T00:33:21.069Z,14.02
2022-11-04T00:35:52.007Z,13.81
2022-11-04T00:38:20.162Z,14.00
2022-11-04T00:40:49.332Z,13.83
2022-11-04T00:43:17.138Z,14.09
2022-11-04T00:45:45.075Z,13.42
2022-11-04T00:48:12.927Z,13.76
2022-11-04T00:50:40.664Z,14.01
2022-11-04T00:53:08.637Z,14.23
2022-11-04T00:55:36.573Z,14.04
2022-11-04T00:58:05.711Z,13.89
2022-11-04T01:00:33.419Z,14.06
2022-11-04T01:03:02.273Z,13.60
2022-11-04T01:05:31.477Z,13.46
2022-11-04T01:07:59.164Z,13.77
2022-11-04T01:10:26.845Z,13.72
2022-11-04T01:12:54.682Z,13.90
2022-11-04T01:15:23.792Z,14.07
2022-11-04T01:17:51.471Z,14.11
2022-11-04T01:20:19.351Z,13.89
2022-11-04T01:22:47.010Z,14.17
2022-11-04T01:25:14.769Z,13.80
2022-11-04T01:27:42.457Z,14.09
2022-11-04T01:30:11.819Z,13.85
2022-11-04T01:32:41.040Z,13.46
2022-11-04T01:35:10.000Z,14.08
2022-11-04T01:37:37.677Z,13.80
2022-11-04T01:40:06.230Z,13.33
2022-11-04T01:42:33.913Z,13.36
2022-11-04T01:45:02.179Z,13.43
2022-11-04T01:47:36.164Z,13.79
2022-11-04T01:50:09.872Z,13.70
2022-11-04T01:52:44.696Z,13.68
2022-11-04T01:55:25.276Z,13.56
2022-11-04T01:57:56.016Z,13.53
2022-11-04T02:00:24.038Z,13.78
2022-11-04T02:02:59.731Z,13.31
2022-11-04T02:05:30.722Z,13.47
2022-11-04T02:08:01.228Z,13.92
2022-11-04T02:10:30.692Z,13.80
2022-11-04T02:12:59.760Z,13.70
2022-11-04T02:15:37.071Z,13.57
2022-11-04T02:18:20.199Z,13.57
2022-11-04T02:21:15.688Z,13.41
2022-11-04T02:24:16.049Z,13.30
2022-11-04T02:27:21.669Z,13.31
2022-11-04T02:30:07.065Z,12.56
2022-11-04T02:33:00.508Z,13.09
2022-11-04T02:35:40.595Z,13.00
2022-11-04T02:38:15.166Z,13.01
2022-11-04T02:40:47.277Z,12.42
2022-11-04T02:43:23.382Z,12.79
2022-11-04T02:45:57.659Z,12.65
2022-11-04T02:48:32.264Z,12.11
2022-11-04T02:51:05.403Z,12.50
2022-11-04T02:53:37.989Z,12.60
2022-11-04T02:56:08.987Z,12.52
2022-11-04T02:58:41.596Z,12.58
2022-11-04T03:01:15.624Z,12.74
2022-11-04T03:03:47.490Z,12.35
2022-11-04T03:06:17.644Z,12.50
2022-11-04T03:08:49.280Z,12.35
2022-11-04T03:11:19.323Z,12.74
2022-11-04T03:13:51.140Z,13.14
2022-11-04T03:16:25.467Z,12.80
2022-11-04T03:19:02.436Z,12.55
2022-11-04T03:21:34.047Z,12.94
2022-11-04T03:24:03.743Z,12.89
2022-11-04T03:26:38.462Z,12.67
2022-11-04T03:29:20.347Z,13.17
2022-11-04T03:31:55.495Z,12.46
2022-11-04T03:34:23.311Z,13.02
2022-11-04T03:36:51.485Z,13.03
2022-11-04T03:39:19.341Z,12.54
2022-11-04T03:41:51.591Z,12.83
2022-11-04T03:44:19.462Z,12.74
2022-11-04T03:46:47.460Z,12.45
2022-11-04T03:49:17.350Z,12.52
2022-11-04T03:51:45.107Z,12.41
2022-11-04T03:54:13.161Z,12.42
2022-11-04T03:57:15.679Z,12.65
2022-11-04T04:00:09.180Z,12.53
2022-11-04T04:02:47.867Z,13.00
2022-11-04T04:05:23.356Z,12.94
2022-11-04T04:07:56.283Z,13.24
2022-11-04T04:10:39.978Z,13.23
2022-11-04T04:13:13.702Z,12.64
2022-11-04T04:15:45.716Z,13.01
2022-11-04T04:18:17.576Z,13.14
2022-11-04T04:20:48.872Z,13.27
2022-11-04T04:23:38.996Z,13.02
2022-11-04T04:26:27.729Z,13.09
2022-11-04T04:28:57.815Z,12.58
2022-11-04T04:31:45.524Z,12.87
2022-11-04T04:34:13.393Z,12.88
2022-11-04T04:36:47.269Z,12.73
2022-11-04T04:39:52.073Z,12.58
2022-11-04T04:42:38.740Z,12.55
2022-11-04T04:45:07.808Z,12.72
2022-11-04T04:47:44.423Z,12.84
2022-11-04T04:50:14.183Z,12.74
2022-11-04T04:52:45.368Z,12.55
2022-11-04T04:55:14.647Z,12.64
2022-11-04T04:57:42.419Z,12.51
2022-11-04T05:00:14.276Z,12.65
2022-11-04T05:02:42.039Z,12.70
2022-11-04T05:05:10.492Z,12.73
2022-11-04T05:07:38.435Z,12.50
2022-11-04T05:10:08.865Z,12.58
2022-11-04T05:12:54.685Z,12.47
2022-11-04T05:15:22.416Z,12.42
2022-11-04T05:17:55.055Z,12.19
2022-11-04T05:20:22.867Z,12.18
2022-11-04T05:22:50.560Z,12.28
2022-11-04T05:25:19.792Z,12.06
2022-11-04T05:27:47.456Z,12.28
2022-11-04T05:30:15.330Z,12.11
2022-11-04T05:32:43.133Z,12.40
2022-11-04T05:35:10.864Z,12.50
2022-11-04T05:37:38.554Z,12.03
2022-11-04T05:40:07.598Z,12.39
2022-11-04T05:42:36.864Z,12.20
2022-11-04T05:45:04.999Z,12.02
2022-11-04T05:47:32.934Z,11.92
2022-11-04T05:50:00.701Z,11.94
2022-11-04T05:52:28.422Z,12.02
2022-11-04T05:54:56.116Z,12.28
2022-11-04T05:57:23.862Z,12.24
2022-11-04T05:59:52.919Z,12.41
2022-11-04T06:02:20.763Z,11.86
2022-11-04T06:04:48.645Z,11.72
2022-11-04T06:07:16.333Z,11.94
2022-11-04T06:09:44.108Z,11.93
2022-11-04T06:12:14.919Z,12.01
2022-11-04T06:14:43.364Z,11.92
2022-11-04T06:17:16.189Z,12.00
2022-11-04T06:19:44.120Z,12.03
2022-11-04T06:22:13.208Z,12.00
2022-11-04T06:24:41.351Z,11.82
2022-11-04T06:27:09.289Z,11.93
2022-11-04T06:29:40.059Z,11.77
2022-11-04T06:32:07.916Z,11.86
2022-11-04T06:34:37.017Z,11.74
2022-11-04T06:37:05.485Z,11.79
2022-11-04T06:39:33.274Z,11.61
2022-11-04T06:42:02.667Z,11.57
2022-11-04T06:44:30.812Z,11.95
2022-11-04T06:46:58.675Z,11.81
2022-11-04T06:49:26.350Z,11.76
2022-11-04T06:51:55.485Z,11.89
2022-11-04T06:54:23.190Z,11.98
2022-11-04T06:56:50.888Z,12.20
2022-11-04T06:59:20.810Z,12.07
2022-11-04T07:01:50.951Z,12.27
2022-11-04T07:04:19.288Z,12.07
2022-11-04T07:06:47.081Z,12.58
2022-11-04T07:09:17.031Z,12.54
2022-11-04T07:11:45.704Z,12.50
2022-11-04T07:14:13.933Z,12.60
2022-11-04T07:16:41.742Z,12.60
2022-11-04T07:19:09.703Z,12.60
2022-11-04T07:21:37.592Z,12.96
2022-11-04T07:24:05.614Z,12.85
2022-11-04T07:26:34.760Z,12.74
2022-11-04T07:29:02.602Z,12.92
2022-11-04T07:31:30.369Z,13.17
2022-11-04T07:33:58.044Z,13.23
2022-11-04T07:36:25.831Z,12.94
2022-11-04T07:38:53.594Z,13.01
2022-11-04T07:41:21.504Z,13.16
2022-11-04T07:43:51.859Z,12.91
2022-11-04T07:46:20.860Z,13.04
2022-11-04T07:48:49.180Z,12.65
2022-11-04T07:51:19.676Z,13.33
2022-11-04T07:53:47.789Z,12.99
2022-11-04T07:56:16.004Z,12.64
2022-11-04T07:58:44.070Z,12.97
2022-11-04T08:01:16.219Z,12.96
2022-11-04T08:03:44.060Z,13.11
2022-11-04T08:06:15.406Z,13.32
2022-11-04T08:08:43.584Z,13.31
2022-11-04T08:11:17.447Z,13.47
2022-11-04T08:13:46.991Z,13.76
2022-11-04T08:16:17.817Z,13.97
2022-11-04T08:18:46.326Z,14.01
2022-11-04T08:21:14.416Z,14.19
2022-11-04T08:23:42.117Z,14.53
2022-11-04T08:26:11.211Z,14.56
2022-11-04T08:28:39.518Z,14.41
2022-11-04T08:31:10.082Z,14.36
2022-11-04T08:33:39.368Z,14.33
2022-11-04T08:36:10.132Z,14.05
2022-11-04T08:38:38.385Z,14.13
2022-11-04T08:41:08.361Z,13.92
2022-11-04T08:43:36.491Z,13.79
2022-11-04T08:46:06.104Z,13.76
2022-11-04T08:48:35.261Z,14.05
2022-11-04T08:51:06.392Z,14.33
2022-11-04T08:53:34.302Z,13.75
2022-11-04T08:56:09.857Z,13.74
2022-11-04T08:58:37.534Z,14.04
2022-11-04T09:01:05.536Z,13.86
2022-11-04T09:03:34.767Z,13.97
2022-11-04T09:06:04.193Z,14.15
2022-11-04T09:08:31.889Z,14.40
2022-11-04T09:10:59.592Z,14.54
2022-11-04T09:13:27.328Z,14.65
2022-11-04T09:15:55.340Z,14.25
2022-11-04T09:18:23.045Z,14.47
2022-11-04T09:20:50.808Z,14.80
2022-11-04T09:23:19.819Z,14.58
2022-11-04T09:25:47.608Z,14.77
2022-11-04T09:28:15.302Z,14.77
2022-11-04T09:30:43.061Z,14.91
2022-11-04T09:33:11.272Z,15.01
2022-11-04T09:35:39.055Z,15.13
2022-11-04T09:38:06.717Z,15.19
2022-11-04T09:40:38.471Z,15.07
2022-11-04T09:43:22.163Z,15.47
2022-11-04T09:45:49.681Z,15.32
2022-11-04T09:48:25.776Z,15.61
2022-11-04T09:50:57.132Z,15.28
2022-11-04T09:53:29.529Z,15.77
2022-11-04T09:56:01.135Z,15.90
2022-11-04T09:58:30.811Z,15.43
2022-11-04T10:01:04.391Z,15.72
2022-11-04T10:03:54.209Z,16.11
2022-11-04T10:06:31.646Z,15.46
2022-11-04T10:09:09.987Z,15.80
2022-11-04T10:11:52.266Z,15.80
2022-11-04T10:14:39.650Z,15.32
2022-11-04T10:17:20.886Z,15.40
2022-11-04T10:20:00.852Z,15.78
2022-11-04T10:22:33.464Z,15.75
2022-11-04T10:25:10.209Z,15.77
2022-11-04T10:27:43.337Z,16.12
2022-11-04T10:30:17.839Z,16.37
2022-11-04T10:32:58.476Z,16.44
2022-11-04T10:35:32.781Z,16.22
2022-11-04T10:38:19.658Z,16.09
2022-11-04T10:40:50.955Z,16.05
2022-11-04T10:43:32.989Z,15.90
2022-11-04T10:46:15.487Z,16.24
2022-11-04T10:48:50.935Z,15.93
2022-11-04T10:51:22.137Z,15.78
2022-11-04T10:53:54.665Z,16.22
2022-11-04T10:56:32.285Z,16.13
2022-11-04T10:59:20.270Z,16.42
2022-11-04T11:01:51.783Z,15.79
2022-11-04T11:04:28.967Z,16.11
2022-11-04T11:06:59.347Z,16.28
2022-11-04T11:09:29.758Z,16.11
2022-11-04T11:12:00.995Z,16.07
2022-11-04T11:14:38.104Z,16.51
2022-11-04T11:17:20.570Z,16.16
2022-11-04T11:19:52.032Z,16.52
2022-11-04T11:22:41.388Z,15.85
2022-11-04T11:25:22.214Z,16.09
2022-11-04T11:27:52.252Z,16.03
2022-11-04T11:30:28.205Z,16.20
2022-11-04T11:32:59.543Z,16.02
2022-11-04T11:35:32.264Z,15.92
2022-11-04T11:38:04.051Z,16.23
2022-11-04T11:40:43.945Z,16.38
2022-11-04T11:43:28.400Z,16.81
2022-11-04T11:46:00.897Z,16.94
2022-11-04T11:48:30.319Z,16.70
2022-11-04T11:51:00.171Z,16.54
2022-11-04T11:53:30.593Z,16.23
2022-11-04T11:56:09.644Z,16.42
2022-11-04T12:01:37.802Z,16.66
2022-11-04T12:10:07.114Z,16.42
2022-11-04T12:12:46.455Z,16.68
2022-11-04T12:15:35.752Z,16.63
2022-11-04T12:18:31.937Z,17.16
2022-11-04T12:21:05.439Z,16.69
2022-11-04T12:23:43.955Z,17.08
2022-11-04T12:26:22.101Z,16.73
2022-11-04T12:29:03.612Z,17.15
2022-11-04T12:31:42.674Z,17.35
2022-11-04T12:34:21.824Z,17.43
2022-11-04T12:37:12.623Z,17.38
2022-11-04T12:40:04.686Z,17.49
2022-11-04T12:42:42.923Z,16.79
2022-11-04T12:45:25.206Z,16.67
2022-11-04T12:48:00.395Z,17.14
2022-11-04T12:50:48.039Z,16.67
2022-11-04T12:53:33.901Z,16.57
2022-11-04T12:56:08.703Z,16.60
2022-11-04T12:58:59.588Z,17.56
2022-11-04T13:01:35.174Z,17.75
2022-11-04T13:04:08.210Z,17.27
2022-11-04T13:06:43.152Z,17.93
2022-11-04T13:09:16.419Z,17.35
2022-11-04T13:11:46.539Z,17.17
2022-11-04T13:14:19.239Z,17.15
2022-11-04T13:16:49.897Z,17.42
2022-11-04T13:19:28.998Z,17.72
2022-11-04T13:22:02.783Z,17.51
2022-11-04T13:24:35.110Z,17.63
2022-11-04T13:27:07.212Z,17.03
2022-11-04T13:29:37.012Z,16.98
2022-11-04T13:32:09.991Z,17.01
2022-11-04T13:34:46.985Z,17.03
2022-11-04T13:37:23.284Z,17.21
2022-11-04T13:39:54.776Z,16.92
2022-11-04T13:42:37.471Z,17.36
2022-11-04T13:45:11.706Z,17.56
2022-11-04T13:47:48.586Z,17.31
2022-11-04T13:50:32.702Z,18.12
2022-11-04T13:53:02.159Z,17.59
2022-11-04T13:55:30.165Z,18.30
2022-11-04T13:58:00.890Z,18.32
2022-11-04T14:00:29.574Z,18.21
2022-11-04T14:03:00.104Z,17.94
2022-11-04T14:05:47.993Z,17.99
2022-11-04T14:08:17.946Z,17.94
2022-11-04T14:10:58.565Z,17.98
2022-11-04T14:13:46.394Z,17.35
2022-11-04T14:16:44.674Z,17.93
2022-11-04T14:19:57.934Z,17.60
2022-11-04T14:22:34.928Z,17.92
2022-11-04T14:25:21.689Z,17.64
2022-11-04T14:27:51.679Z,16.79
2022-11-04T14:30:36.797Z,17.05
2022-11-04T14:33:08.041Z,17.00
2022-11-04T14:35:36.833Z,16.63
2022-11-04T14:38:19.184Z,17.50
2022-11-04T14:40:51.232Z,17.57
2022-11-04T14:43:35.923Z,17.19
2022-11-04T14:46:04.131Z,16.90
2022-11-04T14:48:32.900Z,17.62
2022-11-04T14:51:00.607Z,17.76
2022-11-04T14:53:33.512Z,17.42
2022-11-04T14:56:08.220Z,16.77
2022-11-04T14:58:37.327Z,17.19
2022-11-04T15:01:07.618Z,17.05
2022-11-04T15:06:40.386Z,16.65
2022-11-04T15:09:23.877Z,16.54
2022-11-04T15:12:11.234Z,16.49
2022-11-04T15:14:38.987Z,17.01
2022-11-04T15:17:06.739Z,16.86
2022-11-04T15:19:36.487Z,16.66
2022-11-04T15:22:06.232Z,16.74
2022-11-04T15:24:35.506Z,16.52
2022-11-04T15:27:07.240Z,16.74
2022-11-04T15:29:35.521Z,16.73
2022-11-04T15:32:05.682Z,16.37
2022-11-04T15:34:36.500Z,16.35
2022-11-04T15:37:06.593Z,16.53
2022-11-04T15:39:37.736Z,16.57
2022-11-04T15:42:29.549Z,16.72
2022-11-04T15:44:57.710Z,16.79
2022-11-04T15:47:27.235Z,16.66
2022-11-04T15:50:03.144Z,16.78
2022-11-04T15:52:31.377Z,17.00
2022-11-04T15:55:00.948Z,16.67
2022-11-04T15:57:34.580Z,16.54
2022-11-04T16:00:06.150Z,16.90
2022-11-04T16:02:36.271Z,16.40
2022-11-04T16:05:07.018Z,16.83
2022-11-04T16:07:38.640Z,16.12
2022-11-04T16:10:25.197Z,16.62
2022-11-04T16:12:57.763Z,16.58
2022-11-04T16:15:36.692Z,16.32
2022-11-04T16:18:06.151Z,16.32
2022-11-04T16:20:35.524Z,16.29
2022-11-04T16:23:04.400Z,16.62
2022-11-04T16:25:36.425Z,16.54
2022-11-04T16:28:05.645Z,16.55
2022-11-04T16:30:33.328Z,16.30
2022-11-04T16:33:12.704Z,16.43
2022-11-04T16:35:42.794Z,16.42
2022-11-04T16:38:10.820Z,16.42
2022-11-04T16:40:38.837Z,16.11
2022-11-04T16:43:09.390Z,16.25
2022-11-04T16:45:38.959Z,16.22
2022-11-04T16:48:07.064Z,16.00
2022-11-04T16:50:34.814Z,15.99
2022-11-04T16:53:03.211Z,16.00
2022-11-04T16:55:31.059Z,15.89
2022-11-04T16:58:01.315Z,15.66
2022-11-04T17:00:32.916Z,15.93
2022-11-04T17:03:01.113Z,15.94
2022-11-04T17:05:28.833Z,15.88
2022-11-04T17:08:04.334Z,15.79
2022-11-04T17:10:35.032Z,15.81
2022-11-04T17:13:02.760Z,15.85
2022-11-04T17:15:31.932Z,15.79
2022-11-04T17:17:59.714Z,15.44
2022-11-04T17:20:27.553Z,15.39
2022-11-04T17:22:55.275Z,15.37
2022-11-04T17:25:25.801Z,15.19
2022-11-04T17:27:54.207Z,15.16
2022-11-04T17:30:23.428Z,15.11
2022-11-04T17:32:52.484Z,15.10
2022-11-04T17:35:20.340Z,15.08
2022-11-04T17:37:48.103Z,14.82
2022-11-04T17:40:18.349Z,14.76
2022-11-04T17:43:08.630Z,14.82
2022-11-04T17:45:39.657Z,14.82
2022-11-04T17:48:10.116Z,14.79
2022-11-04T17:50:39.585Z,15.04
2022-11-04T17:53:07.645Z,15.05
2022-11-04T17:55:39.864Z,15.11
2022-11-04T17:58:07.563Z,15.24
2022-11-04T18:00:35.492Z,15.16
2022-11-04T18:03:03.198Z,15.22
2022-11-04T18:05:32.297Z,15.41
2022-11-04T18:08:01.805Z,15.22
2022-11-04T18:10:29.570Z,15.43
2022-11-04T18:12:57.333Z,15.52
2022-11-04T18:15:25.524Z,15.38
2022-11-04T18:17:53.251Z,15.17
2022-11-04T18:20:20.977Z,15.17
2022-11-04T18:22:50.013Z,14.89
2022-11-04T18:25:17.768Z,14.57
2022-11-04T18:27:45.475Z,14.40
2022-11-04T18:30:15.955Z,14.34
2022-11-04T18:32:43.681Z,14.61
2022-11-04T18:35:11.383Z,14.73
2022-11-04T18:37:45.742Z,14.68
2022-11-04T18:40:16.345Z,14.79
2022-11-04T18:42:44.285Z,14.68
2022-11-04T18:45:12.396Z,14.41
2022-11-04T18:47:40.129Z,14.28
2022-11-04T18:50:08.569Z,14.11
2022-11-04T18:52:36.254Z,14.46
2022-11-04T18:55:04.023Z,14.37
2022-11-04T18:57:33.099Z,14.53
2022-11-04T19:00:00.875Z,14.52
2022-11-04T19:02:28.868Z,14.51
2022-11-04T19:04:56.665Z,14.31
2022-11-04T19:07:24.371Z,14.03
2022-11-04T19:09:52.069Z,14.25
2022-11-04T19:12:36.523Z,14.27
2022-11-04T19:15:07.656Z,14.16
2022-11-04T19:17:36.532Z,14.03
2022-11-04T19:20:11.412Z,14.22
2022-11-04T19:22:40.484Z,14.13
2022-11-04T19:25:09.485Z,13.99
2022-11-04T19:27:37.314Z,14.07
2022-11-04T19:30:07.503Z,14.02
2022-11-04T19:32:35.320Z,13.57
2022-11-04T19:35:03.024Z,13.65
2022-11-04T19:37:31.294Z,13.69
2022-11-04T19:39:59.189Z,14.12
2022-11-04T19:42:44.448Z,14.36
2022-11-04T19:45:13.481Z,14.40
2022-11-04T19:47:41.271Z,13.95
2022-11-04T19:50:09.457Z,14.32
2022-11-04T19:52:37.384Z,14.43
2022-11-04T19:55:07.169Z,14.39
2022-11-04T19:57:35.293Z,14.27
2022-11-04T20:00:03.679Z,14.14
2022-11-04T20:02:32.838Z,14.08
2022-11-04T20:05:00.691Z,14.08
2022-11-04T20:07:28.411Z,13.90
2022-11-04T20:09:56.160Z,13.83
2022-11-04T20:12:41.195Z,14.05
2022-11-04T20:15:10.701Z,13.80
2022-11-04T20:17:39.801Z,14.02
2022-11-04T20:20:08.332Z,14.02
2022-11-04T20:22:36.106Z,14.01
2022-11-04T20:25:03.983Z,14.01
2022-11-04T20:27:32.271Z,13.84
2022-11-04T20:30:00.011Z,13.92
2022-11-04T20:32:27.753Z,13.91
2022-11-04T20:34:56.870Z,13.96
2022-11-04T20:37:25.625Z,13.92
2022-11-04T20:39:53.558Z,13.77
2022-11-04T20:42:21.355Z,13.53
2022-11-04T20:44:49.091Z,13.72
2022-11-04T20:47:17.407Z,13.80
2022-11-04T20:49:45.669Z,13.85
2022-11-04T20:52:15.525Z,13.79
2022-11-04T20:54:43.257Z,13.78
2022-11-04T20:57:10.983Z,13.84
2022-11-04T20:59:38.668Z,13.67
2022-11-04T21:02:06.430Z,13.44
2022-11-04T21:04:36.376Z,13.38
2022-11-04T21:07:04.598Z,13.08
2022-11-04T21:09:33.707Z,13.34
2022-11-04T21:12:01.530Z,13.46
2022-11-04T21:14:31.539Z,13.24
2022-11-04T21:16:59.263Z,13.34
2022-11-04T21:19:27.009Z,13.10
2022-11-04T21:21:54.704Z,13.00
2022-11-04T21:24:22.426Z,13.04
2022-11-04T21:26:51.593Z,12.96
2022-11-04T21:29:20.967Z,13.09
2022-11-04T21:31:49.577Z,12.97
2022-11-04T21:34:17.884Z,12.64
2022-11-04T21:36:45.572Z,12.63
2022-11-04T21:39:13.380Z,12.73
2022-11-04T21:41:41.184Z,12.56
2022-11-04T21:44:13.476Z,12.65
2022-11-04T21:46:42.318Z,12.41
2022-11-04T21:49:13.308Z,12.46
2022-11-04T21:51:41.289Z,12.35
2022-11-04T21:54:09.252Z,12.38
2022-11-04T21:56:37.088Z,12.27
2022-11-04T21:59:05.351Z,12.43
2022-11-04T22:01:34.741Z,12.44
2022-11-04T22:04:03.473Z,12.35
2022-11-04T22:06:35.206Z,12.55
2022-11-04T22:09:05.651Z,12.66
2022-11-04T22:11:36.459Z,12.75
2022-11-04T22:14:07.315Z,12.76
2022-11-04T22:16:38.551Z,12.79
2022-11-04T22:19:08.532Z,12.74
2022-11-04T22:21:40.029Z,12.65
2022-11-04T22:24:08.260Z,12.49
2022-11-04T22:26:35.948Z,12.30
2022-11-04T22:29:03.652Z,12.16
2022-11-04T22:31:33.479Z,12.15
2022-11-04T22:34:03.402Z,12.22
2022-11-04T22:36:32.453Z,12.20
2022-11-04T22:39:00.573Z,12.02
2022-11-04T22:41:30.473Z,11.99
2022-11-04T22:43:58.646Z,12.01
2022-11-04T22:46:28.207Z,11.85
2022-11-04T22:48:56.205Z,11.86
2022-11-04T22:51:25.359Z,11.81
2022-11-04T22:53:57.830Z,11.81
2022-11-04T22:56:26.838Z,11.85
2022-11-04T22:58:54.852Z,11.72
2022-11-04T23:01:22.970Z,11.63
2022-11-04T23:03:52.294Z,11.59
2022-11-04T23:06:21.782Z,11.74
2022-11-04T23:08:59.667Z,11.78
2022-11-04T23:11:47.029Z,11.61
2022-11-04T23:14:34.460Z,11.65
2022-11-04T23:17:19.832Z,11.55
2022-11-04T23:19:47.616Z,11.39
2022-11-04T23:22:38.192Z,11.30
2022-11-04T23:25:09.703Z,11.40
2022-11-04T23:27:57.389Z,11.38
2022-11-04T23:30:26.931Z,11.47
2022-11-04T23:32:56.376Z,11.49
2022-11-04T23:35:44.107Z,11.53
2022-11-04T23:38:11.972Z,11.53
2022-11-04T23:40:41.322Z,11.61
2022-11-04T23:43:09.723Z,11.56
2022-11-04T23:45:54.975Z,11.63
2022-11-04T23:48:40.145Z,11.58
2022-11-04T23:51:25.644Z,11.41
2022-11-04T23:54:10.504Z,11.52
2022-11-04T23:56:57.284Z,11.52
2022-11-04T23:59:42.535Z,11.64
